.
WxDataArchive / Data Records for 2008-08-05
2008-08-04 August 2008 2008-08-06

Data Records for Tuesday, 05 August 2008

Time	Temp	Chill	HIndex	Humid	Dewpt	 Wind 	HiWind	WindDir	Rain 	Barom 
-----	----	-----	------	-----	-----	------	------	-------	-----	----- 
00:00	68.3	68.3	68.3	95	66.8	1	3	248	0.02	29.920 
00:05	68.3	68.3	68.3	95	66.8	1	4	248	0.01	29.913 
00:10	68.3	68.3	68.3	95	66.8	1	3	270	0.01	29.906 
00:15	68.4	68.4	68.4	95	66.9	1	2	270	0.01	29.903 
00:20	68.4	68.4	68.4	95	66.9	0	2	270	0.01	29.901 
00:25	68.4	68.4	68.4	95	66.9	0	2	270	0.01	29.900 
00:30	68.4	68.4	68.4	95	66.9	1	2	270	0.00	29.898 
00:35	68.3	68.3	68.3	95	66.8	0	1	270	0.01	29.890 
00:40	68.3	68.3	68.3	95	66.8	1	3	270	0.00	29.886 
00:45	68.3	68.3	68.3	95	66.8	0	3	270	0.01	29.885 
00:50	68.3	68.3	68.3	95	66.8	0	1	270	0.00	29.886 
00:55	68.3	68.3	68.3	95	66.8	0	1	270	0.00	29.877 
01:00	68.3	68.3	68.3	96	67.1	0	0	---	0.01	29.870 
01:05	68.3	68.3	68.3	96	67.1	0	0	---	0.00	29.869 
01:10	68.3	68.3	68.3	96	67.1	0	0	---	0.00	29.868 
01:15	68.3	68.3	68.3	96	67.1	0	1	270	0.00	29.861 
01:20	68.3	68.3	68.3	96	67.1	0	1	270	0.00	29.852 
01:25	68.3	68.3	68.3	96	67.1	0	1	270	0.00	29.853 
01:30	68.3	68.3	68.3	96	67.1	0	0	---	0.00	29.863 
01:35	68.1	68.1	68.1	96	66.9	0	0	---	0.00	29.856 
01:40	68.1	68.1	68.1	96	66.9	0	0	---	0.00	29.852 
01:45	68.3	68.3	68.3	96	67.1	0	0	---	0.00	29.852 
01:50	68.1	68.1	68.1	96	66.9	0	0	---	0.00	29.850 
01:55	68.1	68.1	68.1	96	66.9	0	0	---	0.00	29.852 
02:00	68.1	68.1	68.1	96	66.9	0	0	---	0.00	29.841 
02:05	68.3	68.3	68.3	96	67.1	0	1	270	0.00	29.839 
02:10	68.3	68.3	68.3	96	67.1	0	0	---	0.00	29.836 
02:15	68.3	68.3	68.3	96	67.1	0	1	270	0.01	29.840 
02:20	68.3	68.3	68.3	96	67.1	0	0	---	0.00	29.835 
02:25	68.3	68.3	68.3	96	67.1	0	0	---	0.00	29.839 
02:30	68.3	68.3	68.3	96	67.1	0	0	---	0.00	29.847 
02:35	68.3	68.3	68.3	96	67.1	0	0	---	0.01	29.842 
02:40	68.3	68.3	68.3	96	67.1	0	0	---	0.00	29.847 
02:45	68.4	68.4	68.4	96	67.2	0	1	270	0.00	29.856 
02:50	68.4	68.4	68.4	96	67.2	0	2	270	0.00	29.869 
02:55	68.4	68.4	68.4	96	67.2	0	2	270	0.01	29.883 
03:00	68.4	68.4	68.4	96	67.2	0	1	270	0.00	29.858 
03:05	68.4	68.4	68.4	96	67.2	0	2	248	0.00	29.854 
03:10	68.4	68.4	68.4	96	67.2	1	4	248	0.00	29.828 
03:15	68.4	68.4	68.4	96	67.2	3	7	270	0.00	29.822 
03:20	68.6	68.6	68.6	96	67.4	3	7	270	0.00	29.823 
03:25	68.9	68.9	68.9	96	67.7	3	9	270	0.00	29.817 
03:30	68.9	68.9	68.9	96	67.7	4	10	270	0.01	29.802 
03:35	69.1	69.1	69.1	96	67.9	2	4	248	0.00	29.806 
03:40	68.9	68.9	68.9	95	67.4	1	5	248	0.00	29.814 
03:45	69.1	69.1	69.1	95	67.6	0	1	248	0.00	29.826 
03:50	69.3	69.3	69.3	95	67.8	0	1	248	0.01	29.833 
03:55	69.3	69.3	69.3	95	67.8	0	1	248	0.01	29.831 
04:00	69.3	69.3	69.3	95	67.8	0	2	248	0.01	29.834 
04:05	69.1	69.1	69.1	95	67.6	0	1	248	0.00	29.848 
04:10	69.1	69.1	69.1	95	67.6	1	4	248	0.00	29.866 
04:15	69.1	69.1	69.1	95	67.6	0	1	270	0.00	29.864 
04:20	69.1	69.1	69.1	95	67.6	0	1	270	0.00	29.862 
04:25	69.1	69.1	69.1	95	67.6	0	0	---	0.00	29.856 
04:30	68.9	68.9	68.9	95	67.4	0	0	---	0.00	29.864 
04:35	68.9	68.9	68.9	95	67.4	0	0	---	0.00	29.864 
04:40	69.1	69.1	69.1	95	67.6	0	0	---	0.00	29.852 
04:45	69.3	69.3	69.3	96	68.1	0	1	270	0.00	29.854 
04:50	69.4	69.4	69.4	96	68.2	0	1	270	0.00	29.850 
04:55	69.4	69.4	69.4	96	68.2	0	1	270	0.00	29.851 
05:00	69.6	69.6	69.6	96	68.4	0	2	270	0.00	29.851 
05:05	69.6	69.6	69.6	96	68.4	0	3	270	0.00	29.850 
05:10	69.4	69.4	69.4	96	68.2	0	2	270	0.00	29.847 
05:15	69.4	69.4	69.4	95	67.9	0	1	270	0.00	29.842 
05:20	69.4	69.4	69.4	95	67.9	0	3	270	0.00	29.839 
05:25	69.3	69.3	69.3	95	67.8	0	2	248	0.00	29.841 
05:30	69.3	69.3	69.3	95	67.8	0	1	248	0.00	29.835 
05:35	69.3	69.3	69.3	95	67.8	0	2	248	0.00	29.836 
05:40	69.3	69.3	69.3	95	67.8	0	3	248	0.00	29.840 
05:45	69.3	69.3	69.3	95	67.8	0	3	270	0.00	29.850 
05:50	69.3	69.3	69.3	96	68.1	0	1	270	0.00	29.850 
05:55	69.3	69.3	69.3	95	67.8	1	3	270	0.00	29.851 
06:00	69.3	69.3	69.3	96	68.1	0	3	225	0.00	29.850 
06:05	69.3	69.3	69.3	96	68.1	0	2	225	0.00	29.846 
06:10	69.3	69.3	69.3	96	68.1	0	4	225	0.00	29.852 
06:15	69.4	69.4	69.4	96	68.2	0	0	---	0.00	29.851 
06:20	69.4	69.4	69.4	96	68.2	0	1	248	0.00	29.850 
06:25	69.6	69.6	69.6	96	68.4	0	1	248	0.00	29.847 
06:30	69.6	69.6	69.6	96	68.4	0	3	248	0.00	29.838 
06:35	69.8	69.8	69.8	96	68.6	0	2	248	0.00	29.837 
06:40	69.9	69.9	69.9	96	68.7	0	0	---	0.00	29.835 
06:45	69.9	69.9	69.9	95	68.4	1	2	248	0.00	29.834 
06:50	70.1	70.1	70.1	95	68.6	0	2	248	0.00	29.835 
06:55	70.1	70.1	70.1	95	68.6	0	1	248	0.00	29.829 
07:00	70.3	70.3	70.3	95	68.8	0	2	270	0.00	29.828 
07:05	70.4	70.4	70.4	95	68.9	0	2	270	0.00	29.835 
07:10	70.4	70.4	70.4	94	68.6	1	4	270	0.00	29.832 
07:15	70.8	70.8	70.8	94	69.0	0	2	248	0.00	29.832 
07:20	70.9	70.9	70.9	94	69.1	1	2	248	0.00	29.829 
07:25	71.1	71.1	71.1	93	69.0	1	3	248	0.00	29.825 
07:30	71.5	71.5	71.5	92	69.0	0	2	248	0.00	29.834 
07:35	71.6	71.6	71.6	92	69.1	1	3	248	0.00	29.835 
07:40	71.8	71.8	71.8	91	69.0	1	3	248	0.00	29.837 
07:45	71.8	71.8	71.8	90	68.7	1	3	248	0.00	29.845 
07:50	72.0	72.0	72.0	90	68.9	1	4	248	0.00	29.859 
07:55	72.0	72.0	72.0	89	68.6	1	3	248	0.00	29.860 
08:00	72.0	72.0	72.0	89	68.6	1	4	248	0.00	29.864 
08:05	71.8	71.8	71.8	88	68.0	1	3	248	0.00	29.870 
08:10	71.8	71.8	71.8	88	68.0	2	7	248	0.00	29.881 
08:15	71.8	71.8	71.8	88	68.0	1	6	248	0.00	29.885 
08:20	71.6	71.6	71.6	88	67.8	1	5	248	0.00	29.900 
08:25	71.6	71.6	71.6	88	67.8	2	6	248	0.00	29.901 
08:30	71.5	71.5	71.5	87	67.4	1	4	248	0.00	29.890 
08:35	71.6	71.6	71.6	87	67.5	2	4	248	0.00	29.888 
08:40	71.6	71.6	71.6	87	67.5	1	3	270	0.00	29.884 
08:45	71.6	71.6	71.6	87	67.5	1	3	270	0.00	29.883 
08:50	71.6	71.6	71.6	87	67.5	0	3	248	0.00	29.884 
08:55	71.6	71.6	71.6	87	67.5	1	3	248	0.00	29.882 
09:00	71.6	71.6	71.6	87	67.5	0	2	248	0.00	29.874 
09:05	71.6	71.6	71.6	88	67.8	0	2	248	0.00	29.874 
09:10	71.5	71.5	71.5	88	67.7	1	3	248	0.00	29.878 
09:15	71.5	71.5	71.5	88	67.7	1	4	248	0.00	29.879 
09:20	71.5	71.5	71.5	88	67.7	1	4	225	0.00	29.879 
09:25	71.5	71.5	71.5	88	67.7	1	2	225	0.00	29.881 
09:30	71.6	71.6	71.6	88	67.8	1	3	270	0.00	29.880 
09:35	71.6	71.6	71.6	88	67.8	1	4	270	0.00	29.883 
09:40	71.6	71.6	71.6	88	67.8	1	4	248	0.00	29.877 
09:45	71.5	71.5	71.5	88	67.7	2	6	225	0.00	29.878 
09:50	71.5	71.5	71.5	88	67.7	2	5	248	0.00	29.870 
09:55	71.5	71.5	71.5	89	68.1	2	5	270	0.01	29.871 
10:00	71.5	71.5	71.5	89	68.1	2	6	270	0.00	29.869 
10:05	71.5	71.5	71.5	89	68.1	2	4	248	0.00	29.871 
10:10	71.6	71.6	71.6	89	68.2	1	3	270	0.00	29.870 
10:15	71.6	71.6	71.6	89	68.2	1	4	270	0.00	29.866 
10:20	71.8	71.8	71.8	88	68.0	1	3	248	0.00	29.860 
10:25	71.8	71.8	71.8	88	68.0	1	3	292	0.00	29.857 
10:30	72.0	72.0	72.0	88	68.2	1	3	292	0.00	29.854 
10:35	72.1	72.1	72.1	88	68.3	1	3	292	0.00	29.854 
10:40	72.3	72.3	72.3	88	68.5	1	3	270	0.00	29.857 
10:45	72.5	72.5	72.5	87	68.4	1	3	338	0.00	29.853 
10:50	72.8	72.8	72.8	87	68.7	1	4	292	0.00	29.854 
10:55	73.0	73.0	73.0	86	68.6	1	2	292	0.00	29.855 
11:00	73.2	73.2	73.2	86	68.7	1	3	270	0.00	29.861 
11:05	73.3	73.3	73.3	84	68.2	1	3	270	0.00	29.871 
11:10	73.7	73.7	73.7	84	68.6	1	4	270	0.00	29.865 
11:15	73.9	73.9	73.9	83	68.4	1	4	338	0.00	29.862 
11:20	74.4	74.4	74.4	83	68.9	1	4	270	0.00	29.866 
11:25	74.9	74.9	74.9	82	69.0	2	4	315	0.00	29.866 
11:30	75.6	75.6	76.4	80	69.0	2	6	270	0.00	29.869 
11:35	76.1	76.1	77.1	80	69.5	2	4	270	0.00	29.871 
11:40	76.7	76.7	78.1	80	70.0	2	4	270	0.00	29.873 
11:45	77.0	77.0	78.6	78	69.6	2	5	292	0.00	29.874 
11:50	77.6	77.6	79.6	78	70.2	2	4	292	0.00	29.873 
11:55	78.1	78.1	80.4	77	70.3	2	4	270	0.00	29.869 
12:00	78.5	78.5	81.0	76	70.3	2	4	270	0.00	29.871 
12:05	78.8	78.8	81.5	75	70.2	2	4	292	0.00	29.870 
12:10	79.0	79.0	81.8	75	70.4	2	4	248	0.00	29.870 
12:15	79.2	79.2	82.2	76	71.0	2	4	248	0.00	29.879 
12:20	79.4	79.4	82.6	76	71.2	1	4	248	0.00	29.881 
12:25	79.4	79.4	82.4	74	70.4	3	7	248	0.00	29.884 
12:30	79.2	79.2	82.1	75	70.6	2	4	248	0.00	29.877 
12:35	79.8	79.8	83.2	75	71.1	2	4	248	0.00	29.871 
12:40	79.9	79.9	83.1	73	70.4	2	4	315	0.00	29.870 
12:45	79.9	79.9	83.1	73	70.4	3	5	270	0.00	29.869 
12:50	79.6	79.6	82.6	73	70.2	2	6	248	0.00	29.881 
12:55	79.2	79.2	82.2	76	71.0	2	6	270	0.00	29.873 
13:00	79.2	79.2	82.1	74	70.2	2	5	225	0.00	29.873 
13:05	79.2	79.2	82.1	74	70.2	2	4	248	0.00	29.872 
13:10	79.6	79.6	82.7	74	70.6	2	5	270	0.00	29.870 
13:15	80.1	80.1	83.5	73	70.6	3	6	315	0.00	29.866 
13:20	80.5	80.5	84.2	73	71.0	2	5	248	0.00	29.864 
13:25	80.7	80.7	84.4	72	70.8	2	3	270	0.00	29.864 
13:30	80.7	80.7	84.1	70	70.0	3	5	270	0.00	29.860 
13:35	80.9	80.9	84.3	69	69.8	2	4	270	0.00	29.856 
13:40	81.1	81.1	84.8	70	70.4	2	4	270	0.00	29.859 
13:45	81.1	81.1	84.6	69	69.9	3	7	270	0.00	29.860 
13:50	81.2	81.2	84.8	69	70.0	2	4	270	0.00	29.862 
13:55	81.4	81.4	84.6	66	68.9	3	6	270	0.00	29.862 
14:00	81.6	81.6	85.1	67	69.6	3	6	248	0.00	29.856 
14:05	82.0	82.0	85.6	66	69.5	2	3	248	0.00	29.853 
14:10	82.4	82.4	85.8	64	69.0	2	6	248	0.00	29.853 
14:15	82.6	82.6	86.4	65	69.6	2	4	315	0.00	29.850 
14:20	82.6	82.6	86.4	65	69.6	2	5	270	0.00	29.851 
14:25	83.0	83.0	86.9	64	69.5	2	4	248	0.00	29.855 
14:30	82.6	82.6	86.2	64	69.2	3	5	270	0.00	29.857 
14:35	82.4	82.4	86.1	65	69.4	2	6	270	0.00	29.860 
14:40	82.0	82.0	85.4	65	69.0	2	4	248	0.00	29.853 
14:45	82.0	82.0	85.4	65	69.0	2	6	248	0.00	29.855 
14:50	81.8	81.8	85.3	66	69.3	2	5	292	0.00	29.854 
14:55	81.6	81.6	84.7	65	68.7	2	4	270	0.00	29.855 
15:00	81.6	81.6	84.9	66	69.1	2	3	292	0.00	29.849 
15:05	81.8	81.8	85.3	66	69.3	2	5	270	0.00	29.848 
15:10	82.2	82.2	85.9	66	69.7	2	5	248	0.00	29.848 
15:15	82.6	82.6	86.4	65	69.6	2	4	248	0.00	29.847 
15:20	82.6	82.6	86.4	65	69.6	2	3	248	0.00	29.849 
15:25	82.2	82.2	85.9	66	69.7	2	4	270	0.00	29.852 
15:30	81.8	81.8	85.7	68	70.2	1	3	270	0.00	29.850 
15:35	81.4	81.4	84.8	67	69.4	1	3	270	0.00	29.851 
15:40	81.2	81.2	84.5	67	69.2	1	3	270	0.00	29.852 
15:45	81.1	81.1	84.6	69	69.9	1	3	270	0.00	29.855 
15:50	81.1	81.1	84.6	69	69.9	1	3	270	0.00	29.855 
15:55	80.9	80.9	84.3	69	69.8	2	4	292	0.00	29.857 
16:00	80.9	80.9	84.1	68	69.3	2	4	270	0.00	29.854 
16:05	80.9	80.9	84.3	69	69.8	1	4	270	0.00	29.854 
16:10	80.9	80.9	84.3	69	69.8	2	4	270	0.00	29.855 
16:15	80.7	80.7	83.8	68	69.1	2	5	270	0.00	29.853 
16:20	80.5	80.5	83.6	69	69.4	2	4	315	0.00	29.852 
16:25	80.5	80.5	83.8	70	69.8	1	3	315	0.00	29.853 
16:30	80.5	80.5	83.6	69	69.4	1	3	292	0.00	29.859 
16:35	80.3	80.3	83.4	70	69.6	1	5	292	0.00	29.860 
16:40	80.3	80.3	83.3	69	69.2	2	5	248	0.00	29.858 
16:45	80.1	80.1	83.1	70	69.4	2	4	270	0.00	29.853 
16:50	80.1	80.1	83.1	70	69.4	2	4	270	0.00	29.854 
16:55	80.3	80.3	83.4	70	69.6	2	5	248	0.00	29.852 
17:00	80.3	80.3	83.4	70	69.6	1	2	248	0.00	29.851 
17:05	80.5	80.5	83.6	69	69.4	2	3	292	0.00	29.850 
17:10	80.5	80.5	83.6	69	69.4	2	3	248	0.00	29.850 
17:15	80.5	80.5	83.6	69	69.4	2	3	270	0.00	29.849 
17:20	80.5	80.5	83.9	71	70.2	1	3	270	0.00	29.848 
17:25	80.9	80.9	84.6	71	70.6	0	1	270	0.00	29.847 
17:30	81.1	81.1	84.6	69	69.9	1	4	270	0.00	29.848 
17:35	81.1	81.1	84.6	69	69.9	2	4	270	0.00	29.850 
17:40	81.1	81.1	84.6	69	69.9	1	5	270	0.00	29.850 
17:45	80.9	80.9	84.3	69	69.8	2	5	270	0.00	29.848 
17:50	80.9	80.9	84.5	70	70.2	1	3	270	0.00	29.849 
17:55	80.7	80.7	84.0	69	69.6	2	5	270	0.00	29.849 
18:00	80.7	80.7	84.1	70	70.0	2	5	270	0.00	29.849 
18:05	80.3	80.3	83.6	71	70.0	2	5	270	0.00	29.849 
18:10	80.3	80.3	83.6	71	70.0	1	4	248	0.00	29.849 
18:15	80.3	80.3	83.6	71	70.0	1	4	270	0.00	29.850 
18:20	80.3	80.3	83.7	72	70.4	1	3	270	0.00	29.849 
18:25	80.1	80.1	83.4	72	70.2	2	4	270	0.00	29.849 
18:30	79.9	79.9	83.0	72	70.0	2	4	292	0.00	29.849 
18:35	79.9	79.9	83.1	73	70.4	2	5	270	0.00	29.851 
18:40	79.8	79.8	83.0	73	70.4	1	4	292	0.00	29.851 
18:45	79.6	79.6	82.6	73	70.2	2	4	292	0.00	29.853 
18:50	79.6	79.6	82.7	74	70.6	1	3	270	0.00	29.851 
18:55	79.4	79.4	82.4	74	70.4	1	3	270	0.00	29.854 
19:00	79.4	79.4	82.5	75	70.8	1	4	270	0.00	29.860 
19:05	79.2	79.2	82.1	75	70.6	1	3	270	0.00	29.860 
19:10	79.0	79.0	81.8	75	70.4	1	4	270	0.00	29.862 
19:15	78.8	78.8	81.5	76	70.6	1	3	292	0.00	29.863 
19:20	78.6	78.6	81.2	77	70.8	1	3	292	0.00	29.864 
19:25	78.6	78.6	81.2	77	70.8	1	2	292	0.00	29.865 
19:30	78.5	78.5	81.1	77	70.7	1	3	292	0.00	29.866 
19:35	78.3	78.3	80.7	77	70.5	2	5	248	0.00	29.868 
19:40	78.1	78.1	80.4	78	70.7	1	3	248	0.00	29.871 
19:45	78.1	78.1	80.4	78	70.7	1	3	270	0.00	29.871 
19:50	77.9	77.9	80.1	79	70.8	0	2	270	0.00	29.872 
19:55	77.7	77.7	79.8	79	70.7	1	2	270	0.00	29.872 
20:00	77.7	77.7	79.8	79	70.7	1	3	315	0.00	29.869 
20:05	77.6	77.6	79.6	80	70.9	1	3	315	0.00	29.874 
20:10	77.4	77.4	79.2	80	70.7	1	2	315	0.00	29.876 
20:15	77.4	77.4	79.2	81	71.1	1	2	315	0.00	29.878 
20:20	77.2	77.2	78.9	81	70.9	1	2	315	0.00	29.881 
20:25	77.0	77.0	78.5	81	70.7	0	2	315	0.00	29.881 
20:30	77.0	77.0	78.5	82	71.1	1	2	315	0.00	29.883 
20:35	76.8	76.8	78.2	82	70.9	0	1	315	0.00	29.882 
20:40	76.8	76.8	78.1	83	71.2	1	3	315	0.00	29.877 
20:45	76.8	76.8	78.1	83	71.2	1	2	315	0.00	29.873 
20:50	76.7	76.7	77.9	83	71.1	0	2	315	0.00	29.878 
20:55	76.7	76.7	77.9	83	71.1	0	2	315	0.00	29.877 
21:00	76.7	76.7	77.9	84	71.5	0	2	315	0.00	29.880 
21:05	76.5	76.5	77.5	84	71.3	1	2	315	0.00	29.882 
21:10	76.3	76.3	77.2	84	71.1	0	2	315	0.00	29.884 
21:15	76.3	76.3	77.1	85	71.4	0	2	315	0.00	29.889 
21:20	76.1	76.1	76.7	85	71.2	0	2	315	0.00	29.888 
21:25	76.1	76.1	76.7	85	71.2	0	2	315	0.00	29.893 
21:30	76.1	76.1	76.7	85	71.2	1	3	292	0.00	29.893 
21:35	76.0	76.0	76.5	86	71.5	0	2	248	0.00	29.892 
21:40	76.0	76.0	76.5	86	71.5	0	2	248	0.00	29.892 
21:45	75.8	75.8	76.1	86	71.3	0	2	248	0.00	29.895 
21:50	75.8	75.8	76.0	87	71.6	0	2	248	0.00	29.896 
21:55	75.6	75.6	75.6	87	71.4	0	1	248	0.00	29.892 
22:00	75.4	75.4	75.3	87	71.2	0	2	248	0.00	29.891 
22:05	75.3	75.3	75.1	87	71.2	0	1	248	0.00	29.891 
22:10	75.3	75.3	75.1	87	71.2	0	2	248	0.00	29.894 
22:15	75.1	75.1	74.7	87	71.0	0	2	248	0.00	29.896 
22:20	75.1	75.1	74.7	87	71.0	0	2	248	0.00	29.896 
22:25	74.9	74.9	74.9	87	70.8	0	1	248	0.00	29.898 
22:30	74.9	74.9	74.9	87	70.8	0	1	248	0.00	29.898 
22:35	74.7	74.7	74.7	87	70.6	0	1	248	0.00	29.898 
22:40	74.6	74.6	74.6	87	70.5	0	1	248	0.00	29.899 
22:45	74.6	74.6	74.6	86	70.1	0	1	270	0.00	29.899 
22:50	74.4	74.4	74.4	85	69.6	0	2	270	0.00	29.899 
22:55	74.4	74.4	74.4	85	69.6	0	2	270	0.00	29.898 
23:00	74.4	74.4	74.4	85	69.6	0	1	270	0.00	29.893 
23:05	74.4	74.4	74.4	85	69.6	0	1	270	0.00	29.888 
23:10	74.2	74.2	74.2	85	69.4	0	1	270	0.00	29.887 
23:15	74.0	74.0	74.0	85	69.2	0	1	270	0.00	29.890 
23:20	73.9	73.9	73.9	85	69.1	0	1	270	0.00	29.891 
23:25	73.7	73.7	73.7	85	68.9	0	1	270	0.00	29.893 
23:30	73.5	73.5	73.5	85	68.7	0	2	270	0.00	29.896 
23:35	73.3	73.3	73.3	85	68.5	0	1	270	0.00	29.896 
23:40	73.2	73.2	73.2	86	68.7	0	1	270	0.00	29.895 
23:45	73.0	73.0	73.0	86	68.6	0	1	270	0.00	29.894 
23:50	73.0	73.0	73.0	86	68.6	0	0	---	0.00	29.895 
23:55	72.7	72.7	72.7	86	68.3	0	1	270	0.00	29.896 

CoCoRaHS
IN-AL-39
A2 Web Hosting
Creative Commons License
GoDaddy
Look for:

loaded 2017-10-17 00:14:33 • last modified 2010-11-18 10:43:29
Privacy PolicyDisclaimer
• wx.awcolley.com is powered by PmWiki v.2002016 •
• all content (unless otherwise noted) © 2017 A W Colley